Hauptseite
METAR-TAF:

METAR-TAF

Flughäfen :

Bohrplattform

D15-fa-1, Niederlande

Breite: 54-19-32N, Länge: 2-56-09E, Höhe: 36 m

Beobachtung

Neuester Wetterbericht von vor 39 Minuten, um 23:25 UTC
Wind 13 kt aus Südost
Temperatur 13°C
Luftfeuchtigkeit 94%
Luftdruck 1007 hPa
Sichtweite: 6000 m
Stark Sprühregen

METAR: EHDV 232325Z AUTO 13013KT 6000 +DZ FEW005/// SCT007/// BKN010/// 13/12 Q1007 W///H///

Zeit: 02:04 (00:04 UTC)


TAF: fehlend

Wetterbeobachtungen und Prognosen von mehr als 4000 Flughäfen (METAR und TAF Bericht).

Die verfügbaren Stationen werden durch gelbe und rote Markierungen auf der Karte dargestellt.

Führen Sie die Maus auf sie, um den Namen der Station zu sehen.

Darauf klicken, um die Beobachtung von Wetterbeobachtungen und Prognosen zu sehen.

Um die Karte zu ändern : klicken Sie auf den grünen Tasten mit einem schwarzen Kreuz Zum Vergrößern, auf den grünen Button mit einem Gedankenstrich zu verkleinern, oder auf die grünen Pfeile für benachbarte Karten.


METAR-TAF: